createdAt,value
2022-08-04T00:00:55.336Z,23.4
2022-08-04T00:02:09.616Z,23.4
2022-08-04T00:03:24.021Z,23.3
2022-08-04T00:04:38.345Z,23.3
2022-08-04T00:05:52.624Z,23.3
2022-08-04T00:07:06.916Z,23.3
2022-08-04T00:08:21.313Z,23.2
2022-08-04T00:09:35.639Z,23.2
2022-08-04T00:10:49.911Z,23.2
2022-08-04T00:12:04.196Z,23.2
2022-08-04T00:13:18.596Z,23.1
2022-08-04T00:14:32.920Z,23.1
2022-08-04T00:15:47.206Z,23.1
2022-08-04T00:17:01.486Z,23.1
2022-08-04T00:18:15.886Z,23.1
2022-08-04T00:19:30.208Z,23.1
2022-08-04T00:20:44.495Z,23.1
2022-08-04T00:21:58.772Z,23.1
2022-08-04T00:23:13.176Z,23.1
2022-08-04T00:24:27.507Z,23.1
2022-08-04T00:25:41.789Z,23.1
2022-08-04T00:26:56.076Z,23.1
2022-08-04T00:28:10.478Z,23.1
2022-08-04T00:29:24.788Z,23
2022-08-04T00:30:39.072Z,23
2022-08-04T00:31:53.357Z,23
2022-08-04T00:33:07.770Z,23
2022-08-04T00:34:22.094Z,22.9
2022-08-04T00:35:36.365Z,22.9
2022-08-04T00:36:50.640Z,23
2022-08-04T00:38:05.058Z,23
2022-08-04T00:39:19.378Z,23
2022-08-04T00:40:33.666Z,23
2022-08-04T00:41:47.931Z,23.1
2022-08-04T00:44:16.678Z,23.1
2022-08-04T00:45:30.941Z,23.2
2022-08-04T00:46:45.231Z,23.2
2022-08-04T00:47:59.636Z,23.2
2022-08-04T00:49:13.965Z,23.3
2022-08-04T00:50:28.239Z,23.3
2022-08-04T00:51:42.526Z,23.3
2022-08-04T00:52:56.927Z,23.3
2022-08-04T00:54:11.252Z,23.3
2022-08-04T00:55:25.534Z,23.3
2022-08-04T00:56:39.812Z,23.3
2022-08-04T00:57:54.210Z,23.3
2022-08-04T00:59:08.544Z,23.3
2022-08-04T01:00:22.825Z,23.3
2022-08-04T01:01:37.096Z,23.3
2022-08-04T01:02:51.500Z,23.3
2022-08-04T01:04:05.822Z,23.4
2022-08-04T01:05:20.109Z,23.4
2022-08-04T01:06:34.390Z,23.4
2022-08-04T01:07:48.791Z,23.3
2022-08-04T01:09:03.116Z,23.3
2022-08-04T01:10:17.409Z,23.3
2022-08-04T01:11:31.683Z,23.2
2022-08-04T01:12:46.078Z,23.2
2022-08-04T01:14:00.415Z,23.2
2022-08-04T01:15:14.683Z,23.2
2022-08-04T01:16:28.979Z,23.2
2022-08-04T01:17:43.385Z,23.2
2022-08-04T01:18:57.695Z,23.3
2022-08-04T01:21:26.256Z,23.3
2022-08-04T01:22:40.661Z,23.3
2022-08-04T01:23:54.999Z,23.3
2022-08-04T01:25:09.275Z,23.3
2022-08-04T01:26:23.548Z,23.3
2022-08-04T01:27:37.957Z,23.3
2022-08-04T01:28:52.280Z,23.3
2022-08-04T01:30:06.560Z,23.3
2022-08-04T01:31:20.850Z,23.3
2022-08-04T01:33:49.578Z,23.3
2022-08-04T01:35:03.857Z,23.3
2022-08-04T01:36:18.130Z,23.2
2022-08-04T01:37:32.539Z,23.2
2022-08-04T01:38:46.856Z,23.2
2022-08-04T01:40:01.139Z,23.2
2022-08-04T01:41:15.427Z,23.2
2022-08-04T01:43:44.163Z,23.3
2022-08-04T01:44:58.428Z,23.3
2022-08-04T01:46:12.711Z,23.3
2022-08-04T01:47:27.118Z,23.2
2022-08-04T01:48:41.437Z,23.2
2022-08-04T01:49:55.721Z,23.2
2022-08-04T01:51:10.002Z,23.2
2022-08-04T01:52:24.418Z,23.2
2022-08-04T01:53:38.740Z,23.2
2022-08-04T01:54:53.013Z,23.2
2022-08-04T01:56:07.304Z,23.1
2022-08-04T01:57:21.707Z,23.1
2022-08-04T01:58:36.034Z,23.1
2022-08-04T01:59:50.306Z,23.1
2022-08-04T02:01:04.583Z,23.1
2022-08-04T02:02:18.989Z,23
2022-08-04T02:03:33.319Z,23
2022-08-04T02:04:47.597Z,22.9
2022-08-04T02:07:16.277Z,22.9
2022-08-04T02:08:30.596Z,22.9
2022-08-04T02:09:44.883Z,22.8
2022-08-04T02:12:13.576Z,22.8
2022-08-04T02:13:27.902Z,22.8
2022-08-04T02:14:42.180Z,22.7
2022-08-04T02:15:56.446Z,22.7
2022-08-04T02:17:10.859Z,22.7
2022-08-04T02:18:25.178Z,22.7
2022-08-04T02:19:39.464Z,22.6
2022-08-04T02:20:53.749Z,22.6
2022-08-04T02:22:08.157Z,22.6
2022-08-04T02:23:22.482Z,22.5
2022-08-04T02:24:36.748Z,22.5
2022-08-04T02:25:51.026Z,22.5
2022-08-04T02:27:05.431Z,22.5
2022-08-04T02:28:19.763Z,22.5
2022-08-04T02:29:34.043Z,22.5
2022-08-04T02:30:48.320Z,22.6
2022-08-04T02:32:02.718Z,22.5
2022-08-04T02:33:17.060Z,22.5
2022-08-04T02:34:31.341Z,22.5
2022-08-04T02:35:45.616Z,22.5
2022-08-04T02:37:00.013Z,22.5
2022-08-04T02:38:14.348Z,22.5
2022-08-04T02:39:28.619Z,22.5
2022-08-04T02:40:42.894Z,22.5
2022-08-04T02:41:57.298Z,22.4
2022-08-04T02:43:11.623Z,22.4
2022-08-04T02:44:25.916Z,22.4
2022-08-04T02:45:40.178Z,22.4
2022-08-04T02:46:54.600Z,22.4
2022-08-04T02:48:08.926Z,22.4
2022-08-04T02:49:23.193Z,22.3
2022-08-04T02:50:37.479Z,22.3
2022-08-04T02:51:51.880Z,22.3
2022-08-04T02:53:06.205Z,22.3
2022-08-04T02:54:20.488Z,22.3
2022-08-04T02:55:34.763Z,22.3
2022-08-04T02:56:49.173Z,22.3
2022-08-04T02:58:03.496Z,22.3
2022-08-04T02:59:17.782Z,22.3
2022-08-04T03:00:32.048Z,22.3
2022-08-04T03:01:46.457Z,22.3
2022-08-04T03:03:00.791Z,22.3
2022-08-04T03:04:15.054Z,22.3
2022-08-04T03:05:29.335Z,22.4
2022-08-04T03:06:43.743Z,22.4
2022-08-04T03:07:58.064Z,22.4
2022-08-04T03:09:12.300Z,22.4
2022-08-04T03:10:26.529Z,22.4
2022-08-04T03:11:40.831Z,22.3
2022-08-04T03:12:55.075Z,22.3
2022-08-04T03:14:09.308Z,22.3
2022-08-04T03:15:23.527Z,22.3
2022-08-04T03:16:37.798Z,22.3
2022-08-04T03:17:52.223Z,22.3
2022-08-04T03:19:06.547Z,22.3
2022-08-04T03:20:20.774Z,22.3
2022-08-04T03:21:35.053Z,22.3
2022-08-04T03:22:49.273Z,22.2
2022-08-04T03:24:03.579Z,22.2
2022-08-04T03:25:17.829Z,22.2
2022-08-04T03:26:32.053Z,22.2
2022-08-04T03:27:46.269Z,22.1
2022-08-04T03:29:00.496Z,22.1
2022-08-04T03:30:14.000Z,22.1
2022-08-04T03:31:29.031Z,22
2022-08-04T03:32:43.260Z,22
2022-08-04T03:33:57.479Z,22
2022-08-04T03:35:11.710Z,22
2022-08-04T03:36:26.018Z,21.9
2022-08-04T03:37:40.255Z,21.9
2022-08-04T03:38:54.473Z,21.9
2022-08-04T03:40:08.700Z,21.9
2022-08-04T03:41:22.925Z,21.9
2022-08-04T03:42:37.228Z,21.9
2022-08-04T03:43:51.479Z,21.9
2022-08-04T03:45:05.693Z,21.9
2022-08-04T03:46:19.934Z,21.9
2022-08-04T03:47:34.145Z,21.9
2022-08-04T03:48:48.439Z,21.9
2022-08-04T03:50:02.690Z,21.9
2022-08-04T03:51:16.914Z,21.9
2022-08-04T03:52:31.149Z,21.9
2022-08-04T03:53:45.369Z,21.8
2022-08-04T03:54:59.660Z,21.8
2022-08-04T03:56:13.917Z,21.8
2022-08-04T03:57:28.135Z,21.7
2022-08-04T03:58:42.359Z,21.7
2022-08-04T03:59:56.599Z,21.7
2022-08-04T04:01:10.892Z,21.7
2022-08-04T04:02:25.123Z,21.7
2022-08-04T04:03:39.365Z,21.7
2022-08-04T04:04:53.592Z,21.7
2022-08-04T04:06:07.809Z,21.7
2022-08-04T04:07:22.114Z,21.7
2022-08-04T04:08:36.359Z,21.6
2022-08-04T04:09:50.572Z,21.6
2022-08-04T04:11:04.808Z,21.6
2022-08-04T04:12:19.034Z,21.6
2022-08-04T04:13:33.334Z,21.6
2022-08-04T04:14:47.564Z,21.5
2022-08-04T04:16:01.805Z,21.5
2022-08-04T04:17:16.025Z,21.5
2022-08-04T04:18:30.251Z,21.5
2022-08-04T04:19:44.560Z,21.5
2022-08-04T04:20:58.798Z,21.5
2022-08-04T04:22:13.018Z,21.5
2022-08-04T04:23:27.238Z,21.5
2022-08-04T04:24:41.482Z,21.5
2022-08-04T04:27:10.004Z,21.6
2022-08-04T04:28:24.246Z,21.6
2022-08-04T04:29:38.474Z,21.6
2022-08-04T04:30:52.693Z,21.6
2022-08-04T04:32:06.996Z,21.5
2022-08-04T04:33:21.228Z,21.5
2022-08-04T04:34:35.454Z,21.5
2022-08-04T04:35:49.684Z,21.5
2022-08-04T04:37:03.912Z,21.5
2022-08-04T04:38:18.224Z,21.5
2022-08-04T04:39:32.465Z,21.5
2022-08-04T04:40:46.681Z,21.5
2022-08-04T04:42:00.906Z,21.5
2022-08-04T04:43:15.145Z,21.5
2022-08-04T04:44:29.439Z,21.5
2022-08-04T04:45:43.680Z,21.5
2022-08-04T04:46:57.903Z,21.6
2022-08-04T04:48:12.137Z,21.6
2022-08-04T04:49:26.347Z,21.6
2022-08-04T04:50:40.664Z,21.6
2022-08-04T04:51:54.894Z,21.6
2022-08-04T04:53:09.120Z,21.6
2022-08-04T04:54:23.358Z,21.7
2022-08-04T04:55:37.585Z,21.7
2022-08-04T04:56:51.880Z,21.7
2022-08-04T04:58:06.120Z,21.7
2022-08-04T04:59:20.504Z,21.8
2022-08-04T05:00:34.712Z,21.8
2022-08-04T05:01:48.939Z,21.9
2022-08-04T05:03:03.250Z,21.9
2022-08-04T05:04:17.499Z,21.9
2022-08-04T05:05:31.715Z,21.9
2022-08-04T05:06:45.951Z,21.9
2022-08-04T05:08:00.173Z,21.9
2022-08-04T05:09:14.463Z,22
2022-08-04T05:11:42.937Z,22
2022-08-04T05:12:57.170Z,22
2022-08-04T05:14:11.394Z,22
2022-08-04T05:15:25.684Z,22.1
2022-08-04T05:17:54.157Z,22.2
2022-08-04T05:19:08.380Z,22.2
2022-08-04T05:20:22.621Z,22.2
2022-08-04T05:21:36.913Z,22.3
2022-08-04T05:22:51.159Z,22.3
2022-08-04T05:24:05.385Z,22.3
2022-08-04T05:25:19.612Z,22.3
2022-08-04T05:26:33.835Z,22.3
2022-08-04T05:27:48.131Z,22.4
2022-08-04T05:29:02.364Z,22.4
2022-08-04T05:30:16.656Z,22.4
2022-08-04T05:31:29.979Z,22.4
2022-08-04T05:32:44.291Z,22.4
2022-08-04T05:33:58.562Z,22.4
2022-08-04T05:35:11.870Z,22.4
2022-08-04T05:36:26.092Z,22.5
2022-08-04T05:37:40.394Z,22.5
2022-08-04T05:38:54.630Z,22.5
2022-08-04T05:40:08.864Z,22.6
2022-08-04T05:41:23.080Z,22.7
2022-08-04T05:42:37.299Z,22.8
2022-08-04T05:43:51.618Z,22.9
2022-08-04T05:45:05.840Z,23
2022-08-04T05:46:20.083Z,23.1
2022-08-04T05:47:34.300Z,23.2
2022-08-04T05:48:48.533Z,23.3
2022-08-04T05:50:02.824Z,23.4
2022-08-04T05:51:17.069Z,23.5
2022-08-04T05:52:31.301Z,23.6
2022-08-04T05:53:45.530Z,23.8
2022-08-04T05:54:59.741Z,23.9
2022-08-04T05:56:14.052Z,23.9
2022-08-04T05:57:28.289Z,24
2022-08-04T05:58:42.506Z,24
2022-08-04T05:59:56.748Z,24
2022-08-04T06:01:10.974Z,24.1
2022-08-04T06:02:25.262Z,24.1
2022-08-04T06:03:39.504Z,24.2
2022-08-04T06:04:53.728Z,24.2
2022-08-04T06:06:08.014Z,24.3
2022-08-04T06:07:21.348Z,24.3
2022-08-04T06:08:35.632Z,24.3
2022-08-04T06:09:48.925Z,24.3
2022-08-04T06:11:03.150Z,24.3
2022-08-04T06:12:17.451Z,24.2
2022-08-04T06:13:31.699Z,24.2
2022-08-04T06:14:45.913Z,24.2
2022-08-04T06:16:00.147Z,24.3
2022-08-04T06:17:14.382Z,24.3
2022-08-04T06:18:28.671Z,24.4
2022-08-04T06:19:42.923Z,24.4
2022-08-04T06:20:57.146Z,24.4
2022-08-04T06:22:11.362Z,24.4
2022-08-04T06:23:25.599Z,24.5
2022-08-04T06:24:39.895Z,24.6
2022-08-04T06:25:54.129Z,24.8
2022-08-04T06:27:08.351Z,24.9
2022-08-04T06:28:22.583Z,24.9
2022-08-04T06:29:36.822Z,24.9
2022-08-04T06:30:51.115Z,25
2022-08-04T06:32:05.363Z,25.1
2022-08-04T06:33:19.589Z,25.1
2022-08-04T06:34:33.811Z,25.2
2022-08-04T06:35:48.040Z,25.2
2022-08-04T06:37:02.326Z,25.3
2022-08-04T06:38:16.574Z,25.3
2022-08-04T06:39:30.806Z,25.3
2022-08-04T06:40:45.084Z,25.4
2022-08-04T06:41:59.372Z,25.5
2022-08-04T06:43:13.663Z,25.6
2022-08-04T06:44:27.958Z,25.7
2022-08-04T06:45:41.247Z,25.8
2022-08-04T06:46:55.466Z,25.9
2022-08-04T06:48:09.769Z,26
2022-08-04T06:49:24.019Z,26
2022-08-04T06:50:38.233Z,26
2022-08-04T06:51:52.460Z,26
2022-08-04T06:53:06.689Z,26.1
2022-08-04T06:54:20.986Z,26.2
2022-08-04T06:55:35.233Z,26.2
2022-08-04T06:56:49.450Z,26.2
2022-08-04T06:58:03.683Z,26.3
2022-08-04T06:59:17.921Z,26.3
2022-08-04T07:00:32.209Z,26.3
2022-08-04T07:01:46.442Z,26.4
2022-08-04T07:03:00.669Z,26.4
2022-08-04T07:04:14.900Z,26.5
2022-08-04T07:05:29.124Z,26.5
2022-08-04T07:06:43.432Z,26.6
2022-08-04T07:07:57.673Z,26.6
2022-08-04T07:09:11.899Z,26.5
2022-08-04T07:10:26.129Z,26.5
2022-08-04T07:11:40.356Z,26.5
2022-08-04T07:12:54.652Z,26.5
2022-08-04T07:14:08.889Z,26.6
2022-08-04T07:15:23.110Z,26.6
2022-08-04T07:16:37.408Z,26.8
2022-08-04T07:17:50.689Z,26.8
2022-08-04T07:19:04.936Z,26.8
2022-08-04T07:20:19.168Z,26.8
2022-08-04T07:21:33.401Z,26.9
2022-08-04T07:22:47.621Z,27
2022-08-04T07:24:01.921Z,27.1
2022-08-04T07:25:16.165Z,27.1
2022-08-04T07:26:30.375Z,27.2
2022-08-04T07:27:44.604Z,27.3
2022-08-04T07:28:58.833Z,27.3
2022-08-04T07:30:13.146Z,27.3
2022-08-04T07:31:27.372Z,27.4
2022-08-04T07:32:41.611Z,27.5
2022-08-04T07:33:55.832Z,27.6
2022-08-04T07:35:10.056Z,27.6
2022-08-04T07:36:24.369Z,27.8
2022-08-04T07:37:38.604Z,28
2022-08-04T07:38:52.835Z,28.4
2022-08-04T07:40:07.057Z,28.9
2022-08-04T07:41:21.284Z,29.5
2022-08-04T07:42:35.586Z,30.1
2022-08-04T07:43:49.826Z,30.6
2022-08-04T07:45:04.056Z,31.1
2022-08-04T07:46:18.271Z,31.6
2022-08-04T07:47:32.492Z,31.8
2022-08-04T07:48:46.863Z,31.9
2022-08-04T07:50:01.147Z,32.1
2022-08-04T07:51:14.425Z,32.2
2022-08-04T07:52:28.652Z,32.4
2022-08-04T07:53:42.968Z,33
2022-08-04T07:54:57.206Z,32.6
2022-08-04T07:56:11.420Z,33
2022-08-04T07:58:39.879Z,33.6
2022-08-04T07:59:54.188Z,33.9
2022-08-04T08:01:08.425Z,34.3
2022-08-04T08:02:22.642Z,34.9
2022-08-04T08:03:36.881Z,34.4
2022-08-04T08:04:51.111Z,34.1
2022-08-04T08:06:05.401Z,34.2
2022-08-04T08:07:19.632Z,34.1
2022-08-04T08:08:33.868Z,34.8
2022-08-04T08:09:48.089Z,35.1
2022-08-04T08:11:02.317Z,35.3
2022-08-04T08:12:16.618Z,35.3
2022-08-04T08:13:30.869Z,35.9
2022-08-04T08:14:45.084Z,36.4
2022-08-04T08:15:59.308Z,36.6
2022-08-04T08:17:13.538Z,36.2
2022-08-04T08:18:27.839Z,35.1
2022-08-04T08:19:42.086Z,34.6
2022-08-04T08:20:56.321Z,35.2
2022-08-04T08:22:10.587Z,35.5
2022-08-04T08:23:37.791Z,35.6
2022-08-04T08:24:38.256Z,35.7
2022-08-04T08:25:52.534Z,36.1
2022-08-04T08:27:05.827Z,35.8
2022-08-04T08:28:20.136Z,35.6
2022-08-04T08:29:34.370Z,35.3
2022-08-04T08:30:48.595Z,35.9
2022-08-04T08:32:02.826Z,36
2022-08-04T08:33:17.067Z,36.5
2022-08-04T08:34:31.366Z,36.7
2022-08-04T08:35:45.603Z,36.6
2022-08-04T08:36:59.822Z,36.6
2022-08-04T08:38:14.049Z,36.2
2022-08-04T08:39:28.270Z,36.6
2022-08-04T08:40:42.577Z,36.8
2022-08-04T08:41:56.823Z,37.4
2022-08-04T08:43:11.038Z,37.5
2022-08-04T08:44:25.275Z,37
2022-08-04T08:45:39.507Z,36.8
2022-08-04T08:46:53.807Z,36
2022-08-04T08:48:08.045Z,36.4
2022-08-04T08:49:22.260Z,37
2022-08-04T08:50:36.501Z,36.7
2022-08-04T08:51:50.729Z,36
2022-08-04T08:53:05.018Z,36
2022-08-04T08:54:19.274Z,36.2
2022-08-04T08:55:33.498Z,36.2
2022-08-04T08:56:47.722Z,36.3
2022-08-04T08:58:02.010Z,36.4
2022-08-04T08:59:16.315Z,36.2
2022-08-04T09:00:30.593Z,36.9
2022-08-04T09:01:43.876Z,37.5
2022-08-04T09:02:58.124Z,37.9
2022-08-04T09:04:12.435Z,37.5
2022-08-04T09:05:26.671Z,37.2
2022-08-04T09:06:40.888Z,36.9
2022-08-04T09:07:55.128Z,37.3
2022-08-04T09:09:09.352Z,37.1
2022-08-04T09:10:23.646Z,36.9
2022-08-04T09:11:37.885Z,37.3
2022-08-04T09:12:52.122Z,37.7
2022-08-04T09:14:06.344Z,38.3
2022-08-04T09:15:20.581Z,39
2022-08-04T09:16:34.864Z,39
2022-08-04T09:17:49.113Z,38.3
2022-08-04T09:19:03.339Z,38.4
2022-08-04T09:20:17.563Z,39
2022-08-04T09:21:31.789Z,38.5
2022-08-04T09:22:46.105Z,38.5
2022-08-04T09:24:00.334Z,38.8
2022-08-04T09:25:14.568Z,38.7
2022-08-04T09:26:28.799Z,38.1
2022-08-04T09:27:43.022Z,37.5
2022-08-04T09:28:57.319Z,37.3
2022-08-04T09:30:11.569Z,37.7
2022-08-04T09:31:25.805Z,37.7
2022-08-04T09:32:40.086Z,37.9
2022-08-04T09:33:53.436Z,38.5
2022-08-04T09:35:07.707Z,38.5
2022-08-04T09:36:22.001Z,38.4
2022-08-04T09:37:35.284Z,39.1
2022-08-04T09:38:49.598Z,39.7
2022-08-04T09:40:03.846Z,39.3
2022-08-04T09:41:18.075Z,39.5
2022-08-04T09:42:32.296Z,39.2
2022-08-04T09:43:46.522Z,38.7
2022-08-04T09:45:00.816Z,38.3
2022-08-04T09:46:15.059Z,38.9
2022-08-04T09:47:29.288Z,39.4
2022-08-04T09:48:43.516Z,39.8
2022-08-04T09:49:57.743Z,40.3
2022-08-04T09:51:12.049Z,40.2
2022-08-04T09:52:26.303Z,40.3
2022-08-04T09:53:40.521Z,40.3
2022-08-04T09:54:54.749Z,40.1
2022-08-04T09:56:08.987Z,40.5
2022-08-04T09:57:23.283Z,39.9
2022-08-04T09:58:37.529Z,39
2022-08-04T09:59:51.767Z,38.6
2022-08-04T10:01:05.994Z,38.4
2022-08-04T10:02:20.223Z,39
2022-08-04T10:03:34.531Z,39.6
2022-08-04T10:04:48.781Z,39.7
2022-08-04T10:06:03.004Z,40
2022-08-04T10:07:17.221Z,40.2
2022-08-04T10:08:31.527Z,40
2022-08-04T10:09:45.824Z,39.7
2022-08-04T10:11:00.101Z,39.8
2022-08-04T10:12:13.445Z,40.3
2022-08-04T10:13:27.724Z,40.8
2022-08-04T10:14:42.020Z,40.7
2022-08-04T10:15:56.304Z,40.5
2022-08-04T10:17:10.607Z,39.7
2022-08-04T10:18:24.890Z,39.7
2022-08-04T10:19:39.172Z,40
2022-08-04T10:20:53.482Z,40.6
2022-08-04T10:22:07.768Z,40.6
2022-08-04T10:23:22.042Z,40
2022-08-04T10:24:36.342Z,40.1
